createdAt,value
2023-04-01T00:00:39.712Z,4.25
2023-04-01T00:03:44.084Z,4.93
2023-04-01T00:06:48.325Z,5.47
2023-04-01T00:09:51.295Z,6.67
2023-04-01T00:12:54.348Z,5.07
2023-04-01T00:15:57.739Z,5.85
2023-04-01T00:19:02.505Z,6.07
2023-04-01T00:22:05.421Z,6.95
2023-04-01T00:25:08.367Z,12.40
2023-04-01T00:28:11.400Z,5.68
2023-04-01T00:31:14.582Z,4.80
2023-04-01T00:34:17.846Z,7.57
2023-04-01T00:37:22.084Z,8.13
2023-04-01T00:40:32.851Z,6.37
2023-04-01T00:43:36.242Z,7.20
2023-04-01T00:46:39.214Z,6.05
2023-04-01T00:49:45.340Z,7.00
2023-04-01T00:52:48.564Z,9.77
2023-04-01T00:56:31.674Z,6.67
2023-04-01T00:59:43.742Z,5.35
2023-04-01T01:02:47.384Z,7.95
2023-04-01T01:06:08.739Z,7.37
2023-04-01T01:09:32.846Z,8.35
2023-04-01T01:12:42.191Z,8.37
2023-04-01T01:16:11.951Z,8.35
2023-04-01T01:19:44.882Z,9.20
2023-04-01T01:23:14.251Z,8.45
2023-04-01T01:26:27.527Z,8.68
2023-04-01T01:30:21.288Z,8.13
2023-04-01T01:33:31.607Z,9.90
2023-04-01T01:36:35.944Z,8.30
2023-04-01T01:39:40.812Z,8.93
2023-04-01T01:42:47.845Z,11.55
2023-04-01T01:45:55.002Z,8.30
2023-04-01T01:48:58.928Z,8.57
2023-04-01T01:52:02.596Z,8.52
2023-04-01T01:55:28.860Z,9.02
2023-04-01T01:58:41.732Z,9.77
2023-04-01T02:01:47.868Z,9.17
2023-04-01T02:04:51.610Z,9.07
2023-04-01T02:08:08.853Z,8.65
2023-04-01T02:11:14.003Z,8.43
2023-04-01T02:14:24.279Z,9.38
2023-04-01T02:17:31.619Z,8.10
2023-04-01T02:20:36.273Z,8.48
2023-04-01T02:23:39.688Z,7.62
2023-04-01T02:26:42.831Z,7.65
2023-04-01T02:29:45.984Z,10.45
2023-04-01T02:32:49.824Z,10.33
2023-04-01T02:35:52.455Z,8.60
2023-04-01T02:38:57.306Z,9.15
2023-04-01T02:41:59.903Z,8.38
2023-04-01T02:45:03.680Z,7.32
2023-04-01T02:48:06.790Z,6.73
2023-04-01T02:51:10.130Z,6.90
2023-04-01T02:54:12.690Z,7.90
2023-04-01T02:57:15.598Z,7.30
2023-04-01T03:00:18.568Z,9.02
2023-04-01T03:03:21.466Z,10.30
2023-04-01T03:06:24.403Z,9.50
2023-04-01T03:09:27.327Z,9.90
2023-04-01T03:12:29.928Z,12.00
2023-04-01T03:15:33.453Z,11.32
2023-04-01T03:18:36.364Z,11.93
2023-04-01T03:21:39.267Z,8.77
2023-04-01T03:24:41.875Z,10.30
2023-04-01T03:27:44.718Z,11.45
2023-04-01T03:30:47.452Z,14.27
2023-04-01T03:33:50.441Z,14.77
2023-04-01T03:36:53.243Z,12.52
2023-04-01T03:39:56.305Z,10.20
2023-04-01T03:42:58.968Z,8.70
2023-04-01T03:46:02.094Z,10.10
2023-04-01T03:49:12.687Z,8.43
2023-04-01T03:52:16.057Z,7.12
2023-04-01T03:55:19.084Z,10.30
2023-04-01T03:58:23.678Z,8.43
2023-04-01T04:01:27.302Z,12.52
2023-04-01T04:04:31.189Z,8.50
2023-04-01T04:07:35.757Z,10.13
2023-04-01T04:10:39.010Z,10.88
2023-04-01T04:13:42.392Z,14.10
2023-04-01T04:16:45.439Z,9.18
2023-04-01T04:19:48.110Z,9.10
2023-04-01T04:22:51.322Z,8.95
2023-04-01T04:25:59.390Z,12.15
2023-04-01T04:29:02.814Z,10.52
2023-04-01T04:32:07.285Z,9.82
2023-04-01T04:35:10.854Z,8.67
2023-04-01T04:38:13.672Z,10.18
2023-04-01T04:41:18.856Z,9.18
2023-04-01T04:44:23.286Z,9.65
2023-04-01T04:47:26.291Z,8.38
2023-04-01T04:50:29.085Z,8.57
2023-04-01T04:53:32.223Z,7.57
2023-04-01T04:56:34.865Z,8.82
2023-04-01T04:59:38.842Z,7.40
2023-04-01T05:02:41.886Z,9.55
2023-04-01T05:05:54.762Z,8.97
2023-04-01T05:08:57.943Z,9.02
2023-04-01T05:12:00.792Z,7.32
2023-04-01T05:15:06.327Z,7.28
2023-04-01T05:18:09.638Z,8.75
2023-04-01T05:21:14.333Z,9.63
2023-04-01T05:24:17.438Z,10.52
2023-04-01T05:27:20.432Z,8.73
2023-04-01T05:30:23.330Z,9.65
2023-04-01T05:33:27.449Z,7.12
2023-04-01T05:36:30.335Z,8.53
2023-04-01T05:39:33.102Z,9.05
2023-04-01T05:42:38.155Z,9.50
2023-04-01T05:45:41.086Z,7.90
2023-04-01T05:48:46.545Z,7.05
2023-04-01T05:51:49.476Z,5.97
2023-04-01T05:54:52.373Z,5.47
2023-04-01T05:57:55.059Z,5.22
2023-04-01T06:01:11.199Z,7.43
2023-04-01T06:04:19.047Z,5.00
2023-04-01T06:07:21.698Z,4.97
2023-04-01T06:10:39.159Z,4.62
2023-04-01T06:14:06.598Z,4.78
2023-04-01T06:17:46.984Z,6.68
2023-04-01T06:21:24.289Z,6.05
2023-04-01T06:25:17.364Z,7.37
2023-04-01T06:28:41.005Z,5.65
2023-04-01T06:32:28.393Z,4.30
2023-04-01T06:36:13.016Z,5.97
2023-04-01T06:39:24.772Z,7.28
2023-04-01T06:42:40.512Z,5.53
2023-04-01T06:45:49.887Z,3.80
2023-04-01T06:49:39.357Z,5.12
2023-04-01T06:53:24.642Z,4.45
2023-04-01T06:56:30.970Z,5.57
2023-04-01T06:59:36.490Z,5.70
2023-04-01T07:02:43.311Z,9.27
2023-04-01T07:05:46.809Z,5.93
2023-04-01T07:08:50.099Z,5.35
2023-04-01T07:11:54.847Z,7.20
2023-04-01T07:14:59.731Z,4.30
2023-04-01T07:18:12.045Z,3.72
2023-04-01T07:21:25.032Z,4.65
2023-04-01T07:24:33.462Z,4.40
2023-04-01T07:27:36.769Z,4.82
2023-04-01T07:30:54.840Z,5.03
2023-04-01T07:34:00.490Z,4.22
2023-04-01T07:37:06.468Z,5.30
2023-04-01T07:41:00.912Z,4.87
2023-04-01T07:44:20.050Z,4.18
2023-04-01T07:47:23.445Z,4.10
2023-04-01T07:50:38.047Z,4.10
2023-04-01T07:53:46.806Z,3.37
2023-04-01T07:57:00.456Z,6.97
2023-04-01T08:00:28.930Z,3.62
2023-04-01T08:03:51.211Z,3.40
2023-04-01T08:06:54.471Z,4.28
2023-04-01T08:10:06.592Z,3.78
2023-04-01T08:13:29.671Z,5.40
2023-04-01T08:16:37.630Z,4.90
2023-04-01T08:20:29.847Z,3.33
2023-04-01T08:23:49.813Z,4.75
2023-04-01T08:26:56.254Z,3.40
2023-04-01T08:30:05.356Z,4.37
2023-04-01T08:33:20.688Z,4.32
2023-04-01T08:36:32.781Z,4.10
2023-04-01T08:39:39.887Z,4.37
2023-04-01T08:43:08.238Z,4.78
2023-04-01T08:46:29.589Z,3.95
2023-04-01T08:49:41.497Z,3.03
2023-04-01T08:53:08.362Z,3.70
2023-04-01T08:56:34.910Z,4.10
2023-04-01T08:59:47.207Z,7.20
2023-04-01T09:02:54.877Z,2.75
2023-04-01T09:06:00.995Z,3.00
2023-04-01T09:09:34.903Z,3.83
2023-04-01T09:12:46.901Z,3.40
2023-04-01T09:15:58.708Z,2.80
2023-04-01T09:19:46.567Z,2.42
2023-04-01T09:23:08.201Z,2.17
2023-04-01T09:26:11.338Z,3.83
2023-04-01T09:29:49.988Z,4.03
2023-04-01T09:33:11.800Z,3.35
2023-04-01T09:36:33.298Z,2.37
2023-04-01T09:39:48.874Z,4.55
2023-04-01T09:43:20.645Z,2.97
2023-04-01T09:46:28.030Z,3.50
2023-04-01T09:49:56.963Z,4.10
2023-04-01T09:53:14.669Z,2.90
2023-04-01T09:56:36.289Z,3.35
2023-04-01T09:59:50.864Z,6.83
2023-04-01T10:02:58.467Z,6.10
2023-04-01T10:06:29.056Z,25.37
2023-04-01T10:10:00.968Z,5.95
2023-04-01T10:13:18.236Z,6.78
2023-04-01T10:16:24.526Z,7.47
2023-04-01T10:19:49.242Z,2.90
2023-04-01T10:23:11.285Z,3.40
2023-04-01T10:26:51.537Z,3.83
2023-04-01T10:30:14.880Z,3.35
2023-04-01T10:33:53.786Z,2.97
2023-04-01T10:36:59.072Z,3.42
2023-04-01T10:40:36.818Z,5.43
2023-04-01T10:43:44.460Z,4.30
2023-04-01T10:46:50.489Z,5.20
2023-04-01T10:50:18.022Z,4.77
2023-04-01T10:53:43.011Z,4.75
2023-04-01T10:57:11.361Z,4.15
2023-04-01T11:00:33.652Z,7.93
2023-04-01T11:03:47.529Z,4.45
2023-04-01T11:07:17.325Z,3.13
2023-04-01T11:10:47.737Z,3.60
2023-04-01T11:14:16.030Z,4.25
2023-04-01T11:17:43.812Z,4.43
2023-04-01T11:21:08.240Z,3.58
2023-04-01T11:24:16.857Z,4.43
2023-04-01T11:27:20.411Z,3.40
2023-04-01T11:31:02.359Z,5.62
2023-04-01T11:34:32.161Z,4.15
2023-04-01T11:37:53.652Z,3.95
2023-04-01T11:41:10.909Z,3.97
2023-04-01T11:44:28.226Z,4.70
2023-04-01T11:47:40.769Z,4.55
2023-04-01T11:50:56.337Z,7.60
2023-04-01T11:54:16.136Z,6.12
2023-04-01T11:57:40.424Z,3.53
2023-04-01T12:01:09.451Z,2.50
2023-04-01T12:04:37.791Z,4.40
2023-04-01T12:07:56.984Z,5.22
2023-04-01T12:11:05.813Z,3.25
2023-04-01T12:14:27.058Z,3.07
2023-04-01T12:17:35.881Z,4.93
2023-04-01T12:21:02.893Z,3.92
2023-04-01T12:24:27.155Z,4.50
2023-04-01T12:27:38.858Z,3.70
2023-04-01T12:31:19.137Z,4.30
2023-04-01T12:34:40.013Z,4.03
2023-04-01T12:38:21.763Z,4.43
2023-04-01T12:41:55.648Z,4.57
2023-04-01T12:45:16.642Z,4.47
2023-04-01T12:48:37.874Z,5.70
2023-04-01T12:51:59.724Z,4.90
2023-04-01T12:55:31.306Z,2.90
2023-04-01T12:58:52.440Z,3.83
2023-04-01T13:02:19.655Z,5.15
2023-04-01T13:05:49.382Z,4.43
2023-04-01T13:09:07.365Z,3.72
2023-04-01T13:12:28.306Z,2.75
2023-04-01T13:16:01.489Z,2.92
2023-04-01T13:19:22.462Z,2.53
2023-04-01T13:22:31.252Z,2.80
2023-04-01T13:25:39.814Z,1.65
2023-04-01T13:28:53.914Z,3.10
2023-04-01T13:32:01.334Z,1.90
2023-04-01T13:35:07.006Z,3.50
2023-04-01T13:38:18.385Z,4.23
2023-04-01T13:41:33.135Z,2.62
2023-04-01T13:44:42.665Z,4.43
2023-04-01T13:48:10.756Z,3.65
2023-04-01T13:51:37.751Z,3.62
2023-04-01T13:55:03.817Z,2.50
2023-04-01T13:58:41.591Z,2.35
2023-04-01T14:02:03.918Z,2.83
2023-04-01T14:05:45.006Z,1.77
2023-04-01T14:08:52.797Z,2.03
2023-04-01T14:12:17.312Z,3.03
2023-04-01T14:15:41.349Z,3.47
2023-04-01T14:19:10.844Z,3.05
2023-04-01T14:22:35.689Z,4.85
2023-04-01T14:26:15.979Z,3.35
2023-04-01T14:29:43.318Z,3.73
2023-04-01T14:33:17.832Z,2.15
2023-04-01T14:36:45.196Z,2.47
2023-04-01T14:40:12.844Z,3.37
2023-04-01T14:43:26.727Z,4.72
2023-04-01T14:47:01.420Z,3.27
2023-04-01T14:50:08.114Z,4.18
2023-04-01T14:53:22.014Z,3.45
2023-04-01T14:56:44.210Z,3.10
2023-04-01T14:59:50.833Z,5.50
2023-04-01T15:03:03.220Z,2.93
2023-04-01T15:06:40.535Z,5.78
2023-04-01T15:10:10.913Z,5.47
2023-04-01T15:13:19.906Z,5.97
2023-04-01T15:16:37.032Z,4.62
2023-04-01T15:20:18.748Z,2.80
2023-04-01T15:23:49.890Z,3.50
2023-04-01T15:26:56.436Z,3.30
2023-04-01T15:30:19.564Z,2.40
2023-04-01T15:33:49.557Z,2.67
2023-04-01T15:36:55.046Z,3.83
2023-04-01T15:40:00.787Z,2.65
2023-04-01T15:43:36.632Z,2.42
2023-04-01T15:46:48.954Z,2.83
2023-04-01T15:50:30.075Z,1.92
2023-04-01T15:53:46.233Z,4.00
2023-04-01T15:57:15.873Z,2.03
2023-04-01T16:00:25.756Z,3.45
2023-04-01T16:03:40.046Z,3.28
2023-04-01T16:07:17.916Z,2.40
2023-04-01T16:10:56.974Z,3.87
2023-04-01T16:14:21.289Z,2.60
2023-04-01T16:17:55.313Z,4.30
2023-04-01T16:21:01.059Z,3.35
2023-04-01T16:24:12.126Z,3.27
2023-04-01T16:27:23.792Z,4.72
2023-04-01T16:30:49.025Z,2.70
2023-04-01T16:34:05.068Z,4.55
2023-04-01T16:37:21.899Z,3.80
2023-04-01T16:40:27.497Z,3.77
2023-04-01T16:44:10.802Z,3.83
2023-04-01T16:47:17.000Z,4.60
2023-04-01T16:50:29.000Z,5.00
2023-04-01T16:53:43.989Z,5.32
2023-04-01T16:56:52.091Z,4.03
2023-04-01T16:59:56.310Z,6.40
2023-04-01T17:03:08.624Z,6.05
2023-04-01T17:06:26.390Z,5.15
2023-04-01T17:09:39.459Z,4.57
2023-04-01T17:12:52.617Z,4.50
2023-04-01T17:16:20.893Z,3.95
2023-04-01T17:19:51.431Z,5.85
2023-04-01T17:22:56.981Z,3.47
2023-04-01T17:26:26.469Z,4.53
2023-04-01T17:29:32.460Z,6.10
2023-04-01T17:33:13.215Z,6.25
2023-04-01T17:36:37.320Z,3.12
2023-04-01T17:39:50.969Z,4.07
2023-04-01T17:43:22.386Z,3.85
2023-04-01T17:46:40.771Z,3.87
2023-04-01T17:50:19.197Z,4.20
2023-04-01T17:53:31.017Z,3.67
2023-04-01T17:56:40.979Z,4.07
2023-04-01T18:00:11.374Z,4.57
2023-04-01T18:03:24.920Z,3.97
2023-04-01T18:06:47.744Z,3.95
2023-04-01T18:10:08.949Z,5.20
2023-04-01T18:13:12.288Z,3.97
2023-04-01T18:16:34.904Z,3.83
2023-04-01T18:20:04.764Z,3.70
2023-04-01T18:23:27.381Z,3.47
2023-04-01T18:26:32.180Z,4.50
2023-04-01T18:29:42.703Z,3.65
2023-04-01T18:32:52.790Z,4.70
2023-04-01T18:35:59.550Z,6.60
2023-04-01T18:39:29.618Z,7.10
2023-04-01T18:42:55.504Z,8.07
2023-04-01T18:46:01.513Z,6.07
2023-04-01T18:49:21.662Z,8.45
2023-04-01T18:52:44.469Z,7.67
2023-04-01T18:56:03.270Z,7.18
2023-04-01T18:59:12.016Z,7.55
2023-04-01T19:02:39.370Z,7.70
2023-04-01T19:05:47.486Z,5.68
2023-04-01T19:08:52.697Z,7.03
2023-04-01T19:12:19.459Z,6.93
2023-04-01T19:15:47.246Z,5.95
2023-04-01T19:19:15.389Z,8.98
2023-04-01T19:22:19.242Z,6.05
2023-04-01T19:25:41.912Z,5.63
2023-04-01T19:28:54.289Z,5.12
2023-04-01T19:32:18.072Z,5.80
2023-04-01T19:35:27.829Z,5.12
2023-04-01T19:38:38.932Z,4.85
2023-04-01T19:42:05.039Z,6.77
2023-04-01T19:45:19.151Z,7.68
2023-04-01T19:48:53.324Z,8.38
2023-04-01T19:52:32.581Z,10.52
2023-04-01T19:55:39.746Z,10.75
2023-04-01T19:59:03.978Z,11.20
2023-04-01T20:02:09.894Z,10.98
2023-04-01T20:05:35.369Z,10.68
2023-04-01T20:08:47.448Z,10.73
2023-04-01T20:11:57.159Z,14.93
2023-04-01T20:15:01.999Z,17.03
2023-04-01T20:18:22.344Z,22.98
2023-04-01T20:21:33.369Z,29.70
2023-04-01T20:24:43.587Z,41.95
2023-04-01T20:27:56.117Z,34.35
2023-04-01T20:31:24.438Z,11.20
2023-04-01T20:34:57.806Z,10.27
2023-04-01T20:38:10.115Z,10.93
2023-04-01T20:41:28.666Z,8.75
2023-04-01T20:45:12.934Z,6.87
2023-04-01T20:48:40.596Z,7.27
2023-04-01T20:52:09.272Z,7.87
2023-04-01T20:55:23.506Z,4.78
2023-04-01T20:58:51.871Z,7.65
2023-04-01T21:02:21.435Z,7.15
2023-04-01T21:05:39.592Z,7.40
2023-04-01T21:09:21.429Z,7.55
2023-04-01T21:12:49.716Z,5.43
2023-04-01T21:16:12.466Z,8.43
2023-04-01T21:19:52.801Z,7.05
2023-04-01T21:23:12.296Z,6.80
2023-04-01T21:26:53.264Z,5.87
2023-04-01T21:30:16.933Z,5.80
2023-04-01T21:33:57.403Z,5.60
2023-04-01T21:37:27.074Z,5.87
2023-04-01T21:41:19.624Z,4.83
2023-04-01T21:44:34.063Z,6.72
2023-04-01T21:47:55.714Z,5.82
2023-04-01T21:51:20.395Z,7.22
2023-04-01T21:54:46.279Z,7.57
2023-04-01T21:58:13.958Z,5.10
2023-04-01T22:01:50.732Z,5.57
2023-04-01T22:05:14.183Z,8.07
2023-04-01T22:08:16.776Z,7.97
2023-04-01T22:11:24.819Z,7.15
2023-04-01T22:14:38.003Z,5.80
2023-04-01T22:17:45.734Z,4.95
2023-04-01T22:20:58.334Z,4.20
2023-04-01T22:24:21.371Z,4.90
2023-04-01T22:27:47.068Z,6.30
2023-04-01T22:30:52.907Z,7.57
2023-04-01T22:34:29.545Z,6.75
2023-04-01T22:37:35.570Z,7.30
2023-04-01T22:41:27.270Z,4.90
2023-04-01T22:44:40.982Z,5.37
2023-04-01T22:47:53.589Z,5.77
2023-04-01T22:51:13.417Z,5.53
2023-04-01T22:54:24.955Z,6.90
2023-04-01T22:57:41.694Z,4.95
2023-04-01T23:00:46.757Z,7.32
2023-04-01T23:03:50.985Z,6.17
2023-04-01T23:07:01.659Z,8.10
2023-04-01T23:10:07.494Z,6.03
2023-04-01T23:13:18.110Z,5.72
2023-04-01T23:16:26.288Z,5.62
2023-04-01T23:19:42.918Z,6.47
2023-04-01T23:23:09.215Z,5.85
2023-04-01T23:26:18.999Z,5.62
2023-04-01T23:29:22.505Z,6.50
2023-04-01T23:32:28.915Z,7.10
2023-04-01T23:35:32.516Z,7.50
2023-04-01T23:38:38.125Z,8.43
2023-04-01T23:41:41.081Z,9.23
2023-04-01T23:44:44.868Z,10.63
2023-04-01T23:47:49.961Z,7.70
2023-04-01T23:50:52.920Z,6.80
2023-04-01T23:54:14.645Z,5.85
2023-04-01T23:57:21.854Z,5.35
